OJAI/AMM METAR and TAF weather

Enter ICAO airport designator
Station Type Date Time Source
OJAI METAR 2021/05/13 18:00 UTC NOAA

OJAI 131800Z 35003KT 5000 HZ NSC 20/11 Q1014 NOSIG


Station Type Date Time Source
OJAI Decoded METAR 2021/05/13 18:00 UTC NOAA

Queen Alia Airport, Jordan (OJAI) 31-40N 035-58E
May 13, 2021 - 02:00 PM EDT / 2021.05.13 1800 UTC
Wind: from the N (350 degrees) at 3 MPH (3 KT):0
Visibility: 3 mile(s):0
Weather: haze
Temperature: 68 F (20 C)
Dew Point: 51 F (11 C)
Relative Humidity: 56%
Pressure (altimeter): 29.94 in. Hg (1014 hPa)
ob: OJAI 131800Z 35003KT 5000 HZ NSC 20/11 Q1014 NOSIG
cycle: 18

Station Type Date Time Source
OJAI TAF 2021/05/13 18:15 UTC NOAA

TAF TAF OJAI 131658Z 1318/1424 28008KT 6000 NSC PROB30
TEMPO 1402/1406 VRB01KT 4000 HZ PROB30 1412/1415 4000 DU

Example: see airport list